sensor_id;sensor_type;location;lat;lon;timestamp;pressure;altitude;pressure_sealevel;temperature;humidity
48530;BME280;34927;37.302;-121.982;2023-03-14T00:00:36;100946.0;;;23.45;40.23
48530;BME280;34927;37.302;-121.982;2023-03-14T00:01:44;100945.0;;;23.49;40.13
48530;BME280;34927;37.302;-121.982;2023-03-14T00:02:49;100947.0;;;23.51;40.10
48530;BME280;34927;37.302;-121.982;2023-03-14T00:03:57;100944.0;;;23.51;40.12
48530;BME280;34927;37.302;-121.982;2023-03-14T00:05:02;100941.0;;;23.51;40.16
48530;BME280;34927;37.302;-121.982;2023-03-14T00:06:07;100938.0;;;23.47;40.15
48530;BME280;34927;37.302;-121.982;2023-03-14T00:07:12;100939.0;;;23.48;40.13
48530;BME280;34927;37.302;-121.982;2023-03-14T00:08:17;100934.0;;;23.49;40.06
48530;BME280;34927;37.302;-121.982;2023-03-14T00:09:22;100933.0;;;23.45;40.02
48530;BME280;34927;37.302;-121.982;2023-03-14T00:10:26;100933.0;;;23.49;40.01
48530;BME280;34927;37.302;-121.982;2023-03-14T00:11:32;100934.0;;;23.48;39.99
48530;BME280;34927;37.302;-121.982;2023-03-14T00:12:37;100933.0;;;23.46;39.99
48530;BME280;34927;37.302;-121.982;2023-03-14T00:13:42;100933.0;;;23.50;39.96
48530;BME280;34927;37.302;-121.982;2023-03-14T00:14:47;100927.0;;;23.46;39.86
48530;BME280;34927;37.302;-121.982;2023-03-14T00:15:51;100928.0;;;23.47;39.88
48530;BME280;34927;37.302;-121.982;2023-03-14T00:16:57;100929.0;;;23.48;39.87
48530;BME280;34927;37.302;-121.982;2023-03-14T00:18:02;100927.0;;;23.52;39.82
48530;BME280;34927;37.302;-121.982;2023-03-14T00:19:07;100927.0;;;23.45;39.81
48530;BME280;34927;37.302;-121.982;2023-03-14T00:20:12;100926.0;;;23.47;39.78
48530;BME280;34927;37.302;-121.982;2023-03-14T00:21:18;100929.0;;;23.43;39.76
48530;BME280;34927;37.302;-121.982;2023-03-14T00:22:23;100928.0;;;23.44;39.80
48530;BME280;34927;37.302;-121.982;2023-03-14T00:23:28;100926.0;;;23.40;39.82
48530;BME280;34927;37.302;-121.982;2023-03-14T00:24:32;100927.0;;;23.45;39.81
48530;BME280;34927;37.302;-121.982;2023-03-14T00:25:36;100926.0;;;23.42;39.80
48530;BME280;34927;37.302;-121.982;2023-03-14T00:26:41;100922.0;;;23.41;39.81
48530;BME280;34927;37.302;-121.982;2023-03-14T00:27:46;100918.0;;;23.39;39.79
48530;BME280;34927;37.302;-121.982;2023-03-14T00:28:53;100911.0;;;23.39;39.80
48530;BME280;34927;37.302;-121.982;2023-03-14T00:29:56;100904.0;;;23.38;39.81
48530;BME280;34927;37.302;-121.982;2023-03-14T00:31:04;100902.0;;;23.38;39.88
48530;BME280;34927;37.302;-121.982;2023-03-14T00:32:06;100898.0;;;23.36;39.86
48530;BME280;34927;37.302;-121.982;2023-03-14T00:33:12;100891.0;;;23.38;39.89
48530;BME280;34927;37.302;-121.982;2023-03-14T00:34:17;100892.0;;;23.39;39.91
48530;BME280;34927;37.302;-121.982;2023-03-14T00:35:22;100889.0;;;23.34;39.92
48530;BME280;34927;37.302;-121.982;2023-03-14T00:36:28;100886.0;;;23.41;39.96
48530;BME280;34927;37.302;-121.982;2023-03-14T00:37:32;100885.0;;;23.33;40.17
48530;BME280;34927;37.302;-121.982;2023-03-14T00:38:38;100881.0;;;23.36;40.20
48530;BME280;34927;37.302;-121.982;2023-03-14T00:39:42;100883.0;;;23.32;40.29
48530;BME280;34927;37.302;-121.982;2023-03-14T00:40:47;100883.0;;;23.27;40.36
48530;BME280;34927;37.302;-121.982;2023-03-14T00:41:51;100881.0;;;23.27;40.36
48530;BME280;34927;37.302;-121.982;2023-03-14T00:42:56;100882.0;;;23.31;40.30
48530;BME280;34927;37.302;-121.982;2023-03-14T00:44:02;100882.0;;;23.29;40.32
48530;BME280;34927;37.302;-121.982;2023-03-14T00:45:07;100884.0;;;23.20;40.38
48530;BME280;34927;37.302;-121.982;2023-03-14T00:46:12;100881.0;;;23.29;40.40
48530;BME280;34927;37.302;-121.982;2023-03-14T00:47:17;100874.0;;;23.21;40.44
48530;BME280;34927;37.302;-121.982;2023-03-14T00:48:21;100871.0;;;23.28;40.39
48530;BME280;34927;37.302;-121.982;2023-03-14T00:49:27;100868.0;;;23.32;40.18
48530;BME280;34927;37.302;-121.982;2023-03-14T00:50:32;100866.0;;;23.37;40.09
48530;BME280;34927;37.302;-121.982;2023-03-14T00:51:36;100865.0;;;23.37;40.13
48530;BME280;34927;37.302;-121.982;2023-03-14T00:52:42;100868.0;;;23.37;40.13
48530;BME280;34927;37.302;-121.982;2023-03-14T00:53:47;100868.0;;;23.36;40.12
48530;BME280;34927;37.302;-121.982;2023-03-14T00:54:51;100873.0;;;23.34;40.15
48530;BME280;34927;37.302;-121.982;2023-03-14T00:55:56;100873.0;;;23.35;40.16
48530;BME280;34927;37.302;-121.982;2023-03-14T00:57:01;100874.0;;;23.37;40.17
48530;BME280;34927;37.302;-121.982;2023-03-14T00:58:07;100873.0;;;23.34;40.49
48530;BME280;34927;37.302;-121.982;2023-03-14T00:59:11;100880.0;;;23.33;40.57
48530;BME280;34927;37.302;-121.982;2023-03-14T01:00:17;100879.0;;;23.39;40.48
48530;BME280;34927;37.302;-121.982;2023-03-14T01:01:22;100873.0;;;23.30;40.65
48530;BME280;34927;37.302;-121.982;2023-03-14T01:02:26;100874.0;;;23.35;40.44
48530;BME280;34927;37.302;-121.982;2023-03-14T01:03:31;100878.0;;;23.34;40.45
48530;BME280;34927;37.302;-121.982;2023-03-14T01:04:36;100882.0;;;23.34;40.41
48530;BME280;34927;37.302;-121.982;2023-03-14T01:05:41;100885.0;;;23.33;40.43
48530;BME280;34927;37.302;-121.982;2023-03-14T01:06:46;100890.0;;;23.32;40.33
48530;BME280;34927;37.302;-121.982;2023-03-14T01:07:51;100892.0;;;23.34;40.31
48530;BME280;34927;37.302;-121.982;2023-03-14T01:08:58;100893.0;;;23.30;40.31
48530;BME280;34927;37.302;-121.982;2023-03-14T01:10:02;100894.0;;;23.33;40.22
48530;BME280;34927;37.302;-121.982;2023-03-14T01:11:08;100897.0;;;23.38;40.09
48530;BME280;34927;37.302;-121.982;2023-03-14T01:12:12;100898.0;;;23.39;40.02
48530;BME280;34927;37.302;-121.982;2023-03-14T01:13:16;100894.0;;;23.39;39.97
48530;BME280;34927;37.302;-121.982;2023-03-14T01:14:22;100899.0;;;23.37;39.92
48530;BME280;34927;37.302;-121.982;2023-03-14T01:15:27;100899.0;;;23.38;39.91
48530;BME280;34927;37.302;-121.982;2023-03-14T01:16:35;100899.0;;;23.37;39.83
48530;BME280;34927;37.302;-121.982;2023-03-14T01:17:37;100898.0;;;23.38;39.85
48530;BME280;34927;37.302;-121.982;2023-03-14T01:18:43;100901.0;;;23.37;39.84
48530;BME280;34927;37.302;-121.982;2023-03-14T01:19:47;100903.0;;;23.35;39.81
48530;BME280;34927;37.302;-121.982;2023-03-14T01:20:52;100908.0;;;23.35;39.82
48530;BME280;34927;37.302;-121.982;2023-03-14T01:21:57;100907.0;;;23.30;39.79
48530;BME280;34927;37.302;-121.982;2023-03-14T01:23:02;100910.0;;;23.33;39.90
48530;BME280;34927;37.302;-121.982;2023-03-14T01:24:07;100910.0;;;23.45;39.71
48530;BME280;34927;37.302;-121.982;2023-03-14T01:25:15;100912.0;;;23.65;39.35
48530;BME280;34927;37.302;-121.982;2023-03-14T01:26:24;100911.0;;;23.97;38.82
48530;BME280;34927;37.302;-121.982;2023-03-14T01:27:26;100910.0;;;24.14;38.48
48530;BME280;34927;37.302;-121.982;2023-03-14T01:28:31;100914.0;;;24.10;38.53
48530;BME280;34927;37.302;-121.982;2023-03-14T01:29:36;100911.0;;;24.08;38.61
48530;BME280;34927;37.302;-121.982;2023-03-14T01:30:42;100914.0;;;24.09;38.66
48530;BME280;34927;37.302;-121.982;2023-03-14T01:31:47;100914.0;;;24.01;38.64
48530;BME280;34927;37.302;-121.982;2023-03-14T01:32:52;100916.0;;;23.97;38.86
48530;BME280;34927;37.302;-121.982;2023-03-14T01:33:57;100914.0;;;23.95;38.78
48530;BME280;34927;37.302;-121.982;2023-03-14T01:35:02;100918.0;;;23.84;39.09
48530;BME280;34927;37.302;-121.982;2023-03-14T01:36:08;100914.0;;;23.72;39.34
48530;BME280;34927;37.302;-121.982;2023-03-14T01:37:11;100913.0;;;23.65;39.45
48530;BME280;34927;37.302;-121.982;2023-03-14T01:38:16;100914.0;;;23.52;39.68
48530;BME280;34927;37.302;-121.982;2023-03-14T01:39:21;100910.0;;;23.46;39.86
48530;BME280;34927;37.302;-121.982;2023-03-14T01:40:27;100908.0;;;23.39;39.96
48530;BME280;34927;37.302;-121.982;2023-03-14T01:41:31;100913.0;;;23.36;40.15
48530;BME280;34927;37.302;-121.982;2023-03-14T01:42:36;100905.0;;;23.33;40.29
48530;BME280;34927;37.302;-121.982;2023-03-14T01:43:42;100906.0;;;23.37;40.23
48530;BME280;34927;37.302;-121.982;2023-03-14T01:44:49;100911.0;;;23.30;40.34
48530;BME280;34927;37.302;-121.982;2023-03-14T01:47:07;100918.0;;;23.25;40.42
48530;BME280;34927;37.302;-121.982;2023-03-14T01:48:11;100916.0;;;23.26;40.50
48530;BME280;34927;37.302;-121.982;2023-03-14T01:49:22;100912.0;;;23.25;40.52
48530;BME280;34927;37.302;-121.982;2023-03-14T01:50:26;100907.0;;;23.23;40.59
48530;BME280;34927;37.302;-121.982;2023-03-14T01:51:36;100900.0;;;23.31;40.53
48530;BME280;34927;37.302;-121.982;2023-03-14T01:52:45;100899.0;;;23.26;40.55
48530;BME280;34927;37.302;-121.982;2023-03-14T01:53:53;100898.0;;;23.22;40.59
48530;BME280;34927;37.302;-121.982;2023-03-14T01:55:12;100898.0;;;23.27;40.59
48530;BME280;34927;37.302;-121.982;2023-03-14T01:56:17;100895.0;;;23.23;40.60
48530;BME280;34927;37.302;-121.982;2023-03-14T01:57:25;100894.0;;;23.28;40.56
48530;BME280;34927;37.302;-121.982;2023-03-14T01:58:33;100893.0;;;23.25;40.64
48530;BME280;34927;37.302;-121.982;2023-03-14T01:59:38;100895.0;;;23.22;40.62
48530;BME280;34927;37.302;-121.982;2023-03-14T02:00:46;100895.0;;;23.19;40.61
48530;BME280;34927;37.302;-121.982;2023-03-14T02:01:53;100892.0;;;23.27;40.56
48530;BME280;34927;37.302;-121.982;2023-03-14T02:03:00;100894.0;;;23.28;40.54
48530;BME280;34927;37.302;-121.982;2023-03-14T02:04:08;100895.0;;;23.21;40.56
48530;BME280;34927;37.302;-121.982;2023-03-14T02:05:14;100894.0;;;23.24;40.60
48530;BME280;34927;37.302;-121.982;2023-03-14T02:06:24;100893.0;;;23.20;40.64
48530;BME280;34927;37.302;-121.982;2023-03-14T02:07:36;100890.0;;;23.20;40.67
48530;BME280;34927;37.302;-121.982;2023-03-14T02:08:41;100893.0;;;23.18;40.67
48530;BME280;34927;37.302;-121.982;2023-03-14T02:09:46;100889.0;;;23.22;40.61
48530;BME280;34927;37.302;-121.982;2023-03-14T02:10:52;100885.0;;;23.21;40.53
48530;BME280;34927;37.302;-121.982;2023-03-14T02:11:57;100885.0;;;23.20;40.59
48530;BME280;34927;37.302;-121.982;2023-03-14T02:13:04;100883.0;;;23.21;40.53
48530;BME280;34927;37.302;-121.982;2023-03-14T02:14:08;100878.0;;;23.19;40.55
48530;BME280;34927;37.302;-121.982;2023-03-14T02:15:17;100876.0;;;23.19;40.57
48530;BME280;34927;37.302;-121.982;2023-03-14T02:16:21;100874.0;;;23.14;40.71
48530;BME280;34927;37.302;-121.982;2023-03-14T02:17:27;100874.0;;;23.11;40.79
48530;BME280;34927;37.302;-121.982;2023-03-14T02:18:31;100875.0;;;23.17;40.69
48530;BME280;34927;37.302;-121.982;2023-03-14T02:19:50;100877.0;;;23.12;40.78
48530;BME280;34927;37.302;-121.982;2023-03-14T02:21:03;100873.0;;;23.13;40.79
48530;BME280;34927;37.302;-121.982;2023-03-14T02:22:13;100872.0;;;23.19;40.66
48530;BME280;34927;37.302;-121.982;2023-03-14T02:23:23;100871.0;;;23.18;40.64
48530;BME280;34927;37.302;-121.982;2023-03-14T02:24:40;100868.0;;;23.17;40.63
48530;BME280;34927;37.302;-121.982;2023-03-14T02:25:51;100869.0;;;23.17;40.91
48530;BME280;34927;37.302;-121.982;2023-03-14T02:28:12;100864.0;;;23.15;40.92
48530;BME280;34927;37.302;-121.982;2023-03-14T02:29:17;100859.0;;;23.13;40.94
48530;BME280;34927;37.302;-121.982;2023-03-14T02:30:23;100856.0;;;23.15;40.90
48530;BME280;34927;37.302;-121.982;2023-03-14T02:31:27;100855.0;;;23.11;40.88
48530;BME280;34927;37.302;-121.982;2023-03-14T02:32:33;100855.0;;;23.11;40.97
48530;BME280;34927;37.302;-121.982;2023-03-14T02:33:37;100860.0;;;23.12;40.90
48530;BME280;34927;37.302;-121.982;2023-03-14T02:34:43;100866.0;;;23.12;40.91
48530;BME280;34927;37.302;-121.982;2023-03-14T02:35:50;100869.0;;;23.06;41.03
48530;BME280;34927;37.302;-121.982;2023-03-14T02:36:56;100870.0;;;23.05;40.87
48530;BME280;34927;37.302;-121.982;2023-03-14T02:38:06;100873.0;;;23.02;41.01
48530;BME280;34927;37.302;-121.982;2023-03-14T02:39:15;100871.0;;;22.98;40.97
48530;BME280;34927;37.302;-121.982;2023-03-14T02:40:22;100870.0;;;23.01;40.95
48530;BME280;34927;37.302;-121.982;2023-03-14T02:41:26;100866.0;;;23.01;40.86
48530;BME280;34927;37.302;-121.982;2023-03-14T02:42:31;100861.0;;;22.98;40.80
48530;BME280;34927;37.302;-121.982;2023-03-14T02:43:37;100857.0;;;22.96;40.77
48530;BME280;34927;37.302;-121.982;2023-03-14T02:44:51;100857.0;;;23.01;40.75
48530;BME280;34927;37.302;-121.982;2023-03-14T02:45:57;100850.0;;;22.99;40.69
48530;BME280;34927;37.302;-121.982;2023-03-14T02:47:02;100844.0;;;22.99;40.76
48530;BME280;34927;37.302;-121.982;2023-03-14T02:48:12;100845.0;;;22.97;40.61
48530;BME280;34927;37.302;-121.982;2023-03-14T02:49:17;100844.0;;;22.94;40.80
48530;BME280;34927;37.302;-121.982;2023-03-14T02:50:24;100851.0;;;22.96;40.81
48530;BME280;34927;37.302;-121.982;2023-03-14T02:51:32;100850.0;;;22.98;40.74
48530;BME280;34927;37.302;-121.982;2023-03-14T02:52:36;100859.0;;;22.99;40.59
48530;BME280;34927;37.302;-121.982;2023-03-14T02:53:41;100855.0;;;23.04;40.54
48530;BME280;34927;37.302;-121.982;2023-03-14T02:54:47;100859.0;;;22.94;40.71
48530;BME280;34927;37.302;-121.982;2023-03-14T02:55:52;100861.0;;;22.99;40.63
48530;BME280;34927;37.302;-121.982;2023-03-14T02:56:56;100862.0;;;22.99;40.60
48530;BME280;34927;37.302;-121.982;2023-03-14T02:58:02;100861.0;;;22.96;40.67
48530;BME280;34927;37.302;-121.982;2023-03-14T02:59:07;100864.0;;;22.94;40.74
48530;BME280;34927;37.302;-121.982;2023-03-14T03:00:12;100865.0;;;22.92;40.71
48530;BME280;34927;37.302;-121.982;2023-03-14T03:01:17;100867.0;;;22.92;40.66
48530;BME280;34927;37.302;-121.982;2023-03-14T03:02:21;100866.0;;;22.94;40.55
48530;BME280;34927;37.302;-121.982;2023-03-14T03:03:27;100865.0;;;22.89;40.69
48530;BME280;34927;37.302;-121.982;2023-03-14T03:04:32;100867.0;;;22.89;40.71
48530;BME280;34927;37.302;-121.982;2023-03-14T03:05:36;100870.0;;;22.90;40.74
48530;BME280;34927;37.302;-121.982;2023-03-14T03:06:42;100869.0;;;22.89;40.91
48530;BME280;34927;37.302;-121.982;2023-03-14T03:07:46;100869.0;;;22.88;40.80
48530;BME280;34927;37.302;-121.982;2023-03-14T03:08:52;100869.0;;;22.89;40.62
48530;BME280;34927;37.302;-121.982;2023-03-14T03:09:56;100866.0;;;22.79;40.87
48530;BME280;34927;37.302;-121.982;2023-03-14T03:11:08;100868.0;;;22.92;40.62
48530;BME280;34927;37.302;-121.982;2023-03-14T03:12:17;100868.0;;;22.89;40.59
48530;BME280;34927;37.302;-121.982;2023-03-14T03:13:21;100874.0;;;22.95;40.45
48530;BME280;34927;37.302;-121.982;2023-03-14T03:14:26;100875.0;;;22.84;40.62
48530;BME280;34927;37.302;-121.982;2023-03-14T03:15:31;100880.0;;;22.87;40.64
48530;BME280;34927;37.302;-121.982;2023-03-14T03:16:36;100880.0;;;22.89;40.49
48530;BME280;34927;37.302;-121.982;2023-03-14T03:17:41;100881.0;;;22.95;40.43
48530;BME280;34927;37.302;-121.982;2023-03-14T03:18:47;100879.0;;;22.88;40.52
48530;BME280;34927;37.302;-121.982;2023-03-14T03:19:52;100879.0;;;22.89;40.49
48530;BME280;34927;37.302;-121.982;2023-03-14T03:21:00;100881.0;;;22.88;40.44
48530;BME280;34927;37.302;-121.982;2023-03-14T03:22:07;100881.0;;;22.92;40.29
48530;BME280;34927;37.302;-121.982;2023-03-14T03:23:11;100880.0;;;22.96;40.47
48530;BME280;34927;37.302;-121.982;2023-03-14T03:24:18;100877.0;;;23.12;40.25
48530;BME280;34927;37.302;-121.982;2023-03-14T03:25:22;100880.0;;;23.33;39.84
48530;BME280;34927;37.302;-121.982;2023-03-14T03:26:27;100880.0;;;23.61;39.38
48530;BME280;34927;37.302;-121.982;2023-03-14T03:27:32;100876.0;;;23.79;38.97
48530;BME280;34927;37.302;-121.982;2023-03-14T03:28:37;100883.0;;;23.72;39.05
48530;BME280;34927;37.302;-121.982;2023-03-14T03:29:41;100885.0;;;23.71;39.18
48530;BME280;34927;37.302;-121.982;2023-03-14T03:30:47;100885.0;;;23.55;39.32
48530;BME280;34927;37.302;-121.982;2023-03-14T03:31:52;100883.0;;;23.55;39.43
48530;BME280;34927;37.302;-121.982;2023-03-14T03:32:56;100883.0;;;23.46;39.50
48530;BME280;34927;37.302;-121.982;2023-03-14T03:34:02;100882.0;;;23.40;39.67
48530;BME280;34927;37.302;-121.982;2023-03-14T03:35:07;100883.0;;;23.33;39.65
48530;BME280;34927;37.302;-121.982;2023-03-14T03:36:12;100881.0;;;23.28;39.83
48530;BME280;34927;37.302;-121.982;2023-03-14T03:37:17;100883.0;;;23.20;39.78
48530;BME280;34927;37.302;-121.982;2023-03-14T03:38:21;100878.0;;;23.21;39.83
48530;BME280;34927;37.302;-121.982;2023-03-14T03:39:26;100884.0;;;23.13;39.95
48530;BME280;34927;37.302;-121.982;2023-03-14T03:40:32;100887.0;;;23.11;39.98
48530;BME280;34927;37.302;-121.982;2023-03-14T03:41:36;100888.0;;;23.10;40.00
48530;BME280;34927;37.302;-121.982;2023-03-14T03:42:42;100894.0;;;23.07;40.07
48530;BME280;34927;37.302;-121.982;2023-03-14T03:43:47;100894.0;;;23.01;40.13
48530;BME280;34927;37.302;-121.982;2023-03-14T03:44:52;100895.0;;;22.98;40.20
48530;BME280;34927;37.302;-121.982;2023-03-14T03:45:56;100896.0;;;22.95;40.16
48530;BME280;34927;37.302;-121.982;2023-03-14T03:47:02;100892.0;;;22.89;40.28
48530;BME280;34927;37.302;-121.982;2023-03-14T03:48:06;100891.0;;;22.89;40.29
48530;BME280;34927;37.302;-121.982;2023-03-14T03:49:11;100888.0;;;22.88;40.23
48530;BME280;34927;37.302;-121.982;2023-03-14T03:50:17;100885.0;;;22.87;40.25
48530;BME280;34927;37.302;-121.982;2023-03-14T03:51:22;100884.0;;;22.83;40.28
48530;BME280;34927;37.302;-121.982;2023-03-14T03:52:26;100885.0;;;22.81;40.28
48530;BME280;34927;37.302;-121.982;2023-03-14T03:53:32;100884.0;;;22.81;40.33
48530;BME280;34927;37.302;-121.982;2023-03-14T03:54:37;100886.0;;;22.78;40.28
48530;BME280;34927;37.302;-121.982;2023-03-14T03:55:42;100887.0;;;22.77;40.32
48530;BME280;34927;37.302;-121.982;2023-03-14T03:56:47;100889.0;;;22.73;40.30
48530;BME280;34927;37.302;-121.982;2023-03-14T03:57:51;100888.0;;;22.72;40.47
48530;BME280;34927;37.302;-121.982;2023-03-14T03:58:56;100891.0;;;22.67;40.34
48530;BME280;34927;37.302;-121.982;2023-03-14T04:00:02;100888.0;;;22.70;40.36
48530;BME280;34927;37.302;-121.982;2023-03-14T04:01:08;100890.0;;;22.63;40.38
48530;BME280;34927;37.302;-121.982;2023-03-14T04:02:12;100889.0;;;22.62;40.47
48530;BME280;34927;37.302;-121.982;2023-03-14T04:03:17;100890.0;;;22.56;40.61
48530;BME280;34927;37.302;-121.982;2023-03-14T04:04:21;100887.0;;;22.56;40.58
48530;BME280;34927;37.302;-121.982;2023-03-14T04:05:27;100886.0;;;22.54;40.61
48530;BME280;34927;37.302;-121.982;2023-03-14T04:06:32;100888.0;;;22.61;40.44
48530;BME280;34927;37.302;-121.982;2023-03-14T04:07:36;100888.0;;;22.57;40.52
48530;BME280;34927;37.302;-121.982;2023-03-14T04:08:42;100890.0;;;22.58;40.57
48530;BME280;34927;37.302;-121.982;2023-03-14T04:09:46;100890.0;;;22.52;40.60
48530;BME280;34927;37.302;-121.982;2023-03-14T04:10:55;100890.0;;;22.51;40.66
48530;BME280;34927;37.302;-121.982;2023-03-14T04:12:02;100895.0;;;22.46;40.66
48530;BME280;34927;37.302;-121.982;2023-03-14T04:13:06;100896.0;;;22.52;40.57
48530;BME280;34927;37.302;-121.982;2023-03-14T04:14:11;100895.0;;;22.45;40.76
48530;BME280;34927;37.302;-121.982;2023-03-14T04:15:16;100894.0;;;22.39;40.90
48530;BME280;34927;37.302;-121.982;2023-03-14T04:16:24;100892.0;;;22.55;40.70
48530;BME280;34927;37.302;-121.982;2023-03-14T04:17:27;100892.0;;;22.79;40.40
48530;BME280;34927;37.302;-121.982;2023-03-14T04:18:31;100888.0;;;23.04;39.99
48530;BME280;34927;37.302;-121.982;2023-03-14T04:19:37;100884.0;;;23.38;39.45
48530;BME280;34927;37.302;-121.982;2023-03-14T04:20:41;100882.0;;;23.65;38.95
48530;BME280;34927;37.302;-121.982;2023-03-14T04:21:46;100876.0;;;23.76;38.66
48530;BME280;34927;37.302;-121.982;2023-03-14T04:22:52;100875.0;;;23.69;38.69
48530;BME280;34927;37.302;-121.982;2023-03-14T04:23:56;100873.0;;;23.68;38.77
48530;BME280;34927;37.302;-121.982;2023-03-14T04:25:02;100873.0;;;23.59;38.94
48530;BME280;34927;37.302;-121.982;2023-03-14T04:26:07;100873.0;;;23.53;39.07
48530;BME280;34927;37.302;-121.982;2023-03-14T04:27:11;100874.0;;;23.36;39.25
48530;BME280;34927;37.302;-121.982;2023-03-14T04:28:16;100878.0;;;23.23;39.53
48530;BME280;34927;37.302;-121.982;2023-03-14T04:29:22;100882.0;;;23.20;39.58
48530;BME280;34927;37.302;-121.982;2023-03-14T04:30:27;100884.0;;;23.18;39.61
48530;BME280;34927;37.302;-121.982;2023-03-14T04:31:31;100883.0;;;23.08;39.79
48530;BME280;34927;37.302;-121.982;2023-03-14T04:32:39;100887.0;;;23.00;39.85
48530;BME280;34927;37.302;-121.982;2023-03-14T04:33:41;100883.0;;;23.04;39.82
48530;BME280;34927;37.302;-121.982;2023-03-14T04:34:46;100882.0;;;22.92;40.11
48530;BME280;34927;37.302;-121.982;2023-03-14T04:35:54;100881.0;;;22.87;40.09
48530;BME280;34927;37.302;-121.982;2023-03-14T04:36:57;100883.0;;;22.89;40.09
48530;BME280;34927;37.302;-121.982;2023-03-14T04:38:02;100881.0;;;22.78;40.30
48530;BME280;34927;37.302;-121.982;2023-03-14T04:39:06;100877.0;;;22.76;40.27
48530;BME280;34927;37.302;-121.982;2023-03-14T04:40:12;100878.0;;;22.78;40.22
48530;BME280;34927;37.302;-121.982;2023-03-14T04:41:17;100876.0;;;22.77;40.87
48530;BME280;34927;37.302;-121.982;2023-03-14T04:42:22;100876.0;;;22.90;40.49
48530;BME280;34927;37.302;-121.982;2023-03-14T04:43:26;100876.0;;;22.76;40.39
48530;BME280;34927;37.302;-121.982;2023-03-14T04:44:31;100882.0;;;22.88;40.29
48530;BME280;34927;37.302;-121.982;2023-03-14T04:45:37;100882.0;;;22.74;40.54
48530;BME280;34927;37.302;-121.982;2023-03-14T04:46:41;100882.0;;;22.77;40.56
48530;BME280;34927;37.302;-121.982;2023-03-14T04:47:46;100884.0;;;22.67;40.74
48530;BME280;34927;37.302;-121.982;2023-03-14T04:48:52;100884.0;;;22.69;40.90
48530;BME280;34927;37.302;-121.982;2023-03-14T04:49:56;100882.0;;;22.57;41.07
48530;BME280;34927;37.302;-121.982;2023-03-14T04:51:02;100881.0;;;22.68;40.97
48530;BME280;34927;37.302;-121.982;2023-03-14T04:52:07;100879.0;;;22.57;41.21
48530;BME280;34927;37.302;-121.982;2023-03-14T04:53:11;100878.0;;;22.57;41.26
48530;BME280;34927;37.302;-121.982;2023-03-14T04:54:17;100878.0;;;22.62;41.14
48530;BME280;34927;37.302;-121.982;2023-03-14T04:55:22;100876.0;;;22.48;41.41
48530;BME280;34927;37.302;-121.982;2023-03-14T04:56:28;100874.0;;;22.40;41.63
48530;BME280;34927;37.302;-121.982;2023-03-14T04:57:31;100875.0;;;22.55;41.32
48530;BME280;34927;37.302;-121.982;2023-03-14T04:58:36;100870.0;;;22.58;41.27
48530;BME280;34927;37.302;-121.982;2023-03-14T04:59:41;100869.0;;;22.49;41.46
48530;BME280;34927;37.302;-121.982;2023-03-14T05:00:47;100868.0;;;22.61;41.32
48530;BME280;34927;37.302;-121.982;2023-03-14T05:01:52;100863.0;;;22.51;41.56
48530;BME280;34927;37.302;-121.982;2023-03-14T05:02:57;100859.0;;;22.37;42.94
48530;BME280;34927;37.302;-121.982;2023-03-14T05:04:02;100857.0;;;22.48;42.31
48530;BME280;34927;37.302;-121.982;2023-03-14T05:05:07;100855.0;;;22.28;43.28
48530;BME280;34927;37.302;-121.982;2023-03-14T05:06:12;100856.0;;;22.52;42.44
48530;BME280;34927;37.302;-121.982;2023-03-14T05:07:17;100860.0;;;22.57;42.34
48530;BME280;34927;37.302;-121.982;2023-03-14T05:08:22;100859.0;;;22.61;42.21
48530;BME280;34927;37.302;-121.982;2023-03-14T05:09:29;100859.0;;;22.78;42.02
48530;BME280;34927;37.302;-121.982;2023-03-14T05:10:31;100859.0;;;22.75;42.27
48530;BME280;34927;37.302;-121.982;2023-03-14T05:11:37;100862.0;;;22.76;42.40
48530;BME280;34927;37.302;-121.982;2023-03-14T05:12:41;100860.0;;;22.63;42.29
48530;BME280;34927;37.302;-121.982;2023-03-14T05:13:47;100863.0;;;22.59;42.45
48530;BME280;34927;37.302;-121.982;2023-03-14T05:14:51;100863.0;;;22.46;42.74
48530;BME280;34927;37.302;-121.982;2023-03-14T05:16:04;100860.0;;;22.35;42.88
48530;BME280;34927;37.302;-121.982;2023-03-14T05:17:07;100856.0;;;22.39;42.81
48530;BME280;34927;37.302;-121.982;2023-03-14T05:18:12;100856.0;;;22.33;42.88
48530;BME280;34927;37.302;-121.982;2023-03-14T05:19:16;100853.0;;;22.31;42.94
48530;BME280;34927;37.302;-121.982;2023-03-14T05:20:22;100849.0;;;22.27;42.91
48530;BME280;34927;37.302;-121.982;2023-03-14T05:21:26;100846.0;;;22.22;42.95
48530;BME280;34927;37.302;-121.982;2023-03-14T05:22:31;100847.0;;;22.26;43.02
48530;BME280;34927;37.302;-121.982;2023-03-14T05:23:36;100843.0;;;22.24;42.88
48530;BME280;34927;37.302;-121.982;2023-03-14T05:24:41;100844.0;;;22.24;42.91
48530;BME280;34927;37.302;-121.982;2023-03-14T05:25:47;100842.0;;;22.26;42.81
48530;BME280;34927;37.302;-121.982;2023-03-14T05:26:51;100837.0;;;22.30;42.76
48530;BME280;34927;37.302;-121.982;2023-03-14T05:27:57;100835.0;;;22.20;43.04
48530;BME280;34927;37.302;-121.982;2023-03-14T05:29:02;100832.0;;;22.12;43.14
48530;BME280;34927;37.302;-121.982;2023-03-14T05:30:08;100826.0;;;22.25;42.77
48530;BME280;34927;37.302;-121.982;2023-03-14T05:31:11;100821.0;;;22.19;42.88
48530;BME280;34927;37.302;-121.982;2023-03-14T05:32:16;100816.0;;;22.18;42.85
48530;BME280;34927;37.302;-121.982;2023-03-14T05:33:21;100813.0;;;22.34;42.82
48530;BME280;34927;37.302;-121.982;2023-03-14T05:34:26;100813.0;;;22.31;43.94
48530;BME280;34927;37.302;-121.982;2023-03-14T05:35:31;100808.0;;;22.35;43.17
48530;BME280;34927;37.302;-121.982;2023-03-14T05:36:36;100811.0;;;22.47;43.02